Stations météo

réclame
Mon MeteoGroup
Stockholm/Tullinge, Suède (2469): Température de l'air & dewpoint: 11.02.2019 13:00:00 - 17.02.2019 13:00:00 (CET)Stockholm/Tullinge, Suède (2469): Vitesse du vent & gusts: 11.02.2019 13:00:00 - 17.02.2019 13:00:00 (CET)Stockholm/Tullinge, Suède (2469): Direction du vent: 11.02.2019 13:00:00 - 17.02.2019 13:00:00 (CET)Stockholm/Tullinge, Suède (2469): visibility: 11.02.2019 13:00:00 - 17.02.2019 13:00:00 (CET)Stockholm/Tullinge, Suède (2469): Quantités de précipitations: 11.02.2019 13:00:00 - 17.02.2019 13:00:00 (CET)
Date & Time tt [°C] td [°C] ff [km/h] ff [knt] fx [km/h] fx [knt] dd vv [km] rr [mm]
17.02.2019 13:00:00 - - - - - - - - -
17.02.2019 12:00:00 3,6 -3,4 7 4 12 7 NW 44 0,0
17.02.2019 11:00:00 3,0 -4,3 4 2 15 8 NNW 50 0,0
17.02.2019 10:00:00 2,2 -3,5 9 5 18 10 NNW 50 0,0
17.02.2019 09:00:00 0,4 -2,5 5 3 9 5 WSW 49 0,0
17.02.2019 08:00:00 -1,0 -2,7 0 0 19 11 N 39 0,0
17.02.2019 07:00:00 -0,5 -2,2 12 7 16 9 NW 49 0,0
17.02.2019 06:00:00 -2,2 -2,6 5 3 14 7 WSW 10 0,0
17.02.2019 05:00:00 -0,2 -1,2 11 6 14 8 NW 20 0,0
17.02.2019 04:00:00 0,7 -0,8 10 6 16 9 NW 22 0,0
17.02.2019 03:00:00 1,5 0,5 8 4 13 7 NW 14 0,0
17.02.2019 02:00:00 0,2 -0,2 6 3 13 7 W 5 0,0
17.02.2019 01:00:00 2,3 1,4 10 6 18 10 WNW 9 0,0
17.02.2019 00:00:00 - - - - 18 10 - - -
16.02.2019 23:00:00 3,8 2,2 10 5 17 9 WNW 10 0,0
16.02.2019 22:00:00 4,4 2,6 6 4 17 9 W 11 0,0
16.02.2019 21:00:00 5,0 2,7 10 6 29 15 WNW 11 0,0
16.02.2019 20:00:00 5,6 3,1 14 8 29 16 W 10 0,0
16.02.2019 19:00:00 6,1 3,1 11 6 26 14 WNW 12 0,0
16.02.2019 18:00:00 6,1 2,7 16 8 27 15 WNW 14 0,0
16.02.2019 17:00:00 7,1 1,0 12 6 20 11 W 41 0,0
16.02.2019 16:00:00 7,8 1,0 15 8 31 17 WSW 36 0,0
16.02.2019 15:00:00 9,1 1,0 23 12 36 20 SW 31 0,0
16.02.2019 14:00:00 9,5 0,9 25 14 41 22 WSW 35 0,0
16.02.2019 13:00:00 9,4 0,3 23 13 40 21 WSW 33 0,0
16.02.2019 12:00:00 8,9 -0,7 17 9 30 16 SW 44 0,0
16.02.2019 11:00:00 6,8 -1,1 13 7 26 14 SW 42 0,0
16.02.2019 10:00:00 5,6 -1,8 14 8 27 15 SW 47 0,0
16.02.2019 09:00:00 4,3 -2,1 13 7 21 11 WSW 36 0,0
16.02.2019 08:00:00 3,4 -1,9 9 5 18 10 SW 34 0,0
16.02.2019 07:00:00 2,8 -1,7 8 4 16 9 SW 33 0,0
16.02.2019 06:00:00 2,8 -1,6 9 5 20 11 WSW 29 0,0
16.02.2019 05:00:00 3,3 -1,3 13 7 28 15 SW 31 0,0
16.02.2019 04:00:00 3,5 -1,1 15 8 24 13 SW 33 0,0
16.02.2019 03:00:00 4,0 -0,8 12 7 22 12 SW 31 0,0
16.02.2019 02:00:00 4,1 -0,7 9 5 21 12 SW 43 0,0
16.02.2019 01:00:00 4,2 -1,4 10 5 23 13 WSW 50 0,0
16.02.2019 00:00:00 4,8 -1,0 15 8 28 15 WSW 50 0,0
15.02.2019 23:00:00 4,3 -0,5 16 9 23 13 WSW 50 0,0
15.02.2019 22:00:00 3,7 0,0 10 5 17 9 WSW 50 0,0
15.02.2019 21:00:00 3,6 1,0 9 5 19 11 WSW 50 0,0
15.02.2019 20:00:00 3,7 1,4 13 7 21 11 W 45 0,0
15.02.2019 19:00:00 4,5 2,0 16 8 23 12 W 49 0,0
15.02.2019 18:00:00 5,0 2,7 16 9 29 15 W 39 0,0
15.02.2019 17:00:00 4,9 3,1 11 6 19 11 WSW 48 0,0
15.02.2019 16:00:00 6,6 3,9 10 5 23 12 WSW 50 0,0
15.02.2019 15:00:00 7,3 4,3 14 8 23 12 WSW 50 0,0
15.02.2019 14:00:00 7,1 4,2 14 8 25 14 WSW 50 0,0
15.02.2019 13:00:00 7,5 4,3 17 9 30 16 W 50 0,0
15.02.2019 12:00:00 7,2 4,3 17 9 29 16 W 50 0,0
15.02.2019 11:00:00 6,1 4,1 16 9 26 14 W 50 0,0
15.02.2019 10:00:00 5,3 4,0 14 7 23 12 W 50 0,0
15.02.2019 09:00:00 4,2 3,5 16 8 23 12 W 35 0,0
15.02.2019 08:00:00 3,2 2,8 12 6 21 12 W 17 0,0
15.02.2019 07:00:00 3,0 2,9 14 8 18 10 W 12 0,0
15.02.2019 06:00:00 3,1 2,7 10 5 22 12 W 13 0,0
15.02.2019 05:00:00 3,7 3,0 14 7 20 11 W 15 0,0
15.02.2019 04:00:00 3,9 3,0 9 5 23 12 W 16 0,0
15.02.2019 03:00:00 3,8 2,9 15 8 26 14 W 15 0,0
15.02.2019 02:00:00 3,9 2,9 13 7 20 11 W 17 0,0
15.02.2019 01:00:00 4,2 2,9 14 8 22 12 W 20 0,0
15.02.2019 00:00:00 4,5 2,7 10 6 23 12 WNW 25 0,0
14.02.2019 23:00:00 4,8 2,8 0 0 19 11 N 29 0,0
14.02.2019 22:00:00 4,8 2,7 4 2 29 16 WNW 30 0,0
14.02.2019 21:00:00 5,2 2,7 12 6 32 17 W 30 0,0
14.02.2019 20:00:00 5,9 3,2 0 0 35 19 N 36 0,0
14.02.2019 19:00:00 6,0 3,5 21 12 45 25 W 41 0,0
14.02.2019 18:00:00 5,9 3,6 26 14 47 26 W 32 0,0
14.02.2019 17:00:00 6,0 3,8 26 14 40 22 WSW 38 0,0
14.02.2019 16:00:00 6,3 4,0 24 13 40 22 WSW 38 0,0
14.02.2019 15:00:00 6,6 4,1 19 10 36 20 WSW 45 0,0
14.02.2019 14:00:00 6,3 4,1 20 11 34 19 WSW 49 0,0
14.02.2019 13:00:00 5,9 4,1 18 10 36 19 WSW 48 0,0
14.02.2019 12:00:00 5,3 4,0 21 11 32 18 WSW 47 0,0
14.02.2019 11:00:00 4,3 3,3 18 10 29 16 WSW 27 0,0
14.02.2019 10:00:00 3,0 2,6 11 6 20 11 WSW 13 0,0
14.02.2019 09:00:00 1,5 1,2 16 8 26 14 SW 7 0,0
14.02.2019 08:00:00 - - - - 25 14 - - -
14.02.2019 07:00:00 0,0 -1,3 6 3 12 6 SW 12 0,0
14.02.2019 06:00:00 -2,1 -2,8 0 0 8 4 N 15 0,0
14.02.2019 05:00:00 -2,5 -3,3 0 0 5 3 N 21 0,0
14.02.2019 04:00:00 -2,9 -3,2 0 0 1 0 N 19 0,0
14.02.2019 03:00:00 -2,5 -3,2 0 0 10 5 N 21 0,0
14.02.2019 02:00:00 -2,1 -3,1 2 1 8 5 WSW 25 0,0
14.02.2019 01:00:00 -0,4 -2,5 5 3 11 6 W 35 0,0
14.02.2019 00:00:00 3,8 -1,8 6 3 23 12 NNW 49 0,0
13.02.2019 23:00:00 5,1 -1,8 10 6 26 14 WNW 45 0,0
13.02.2019 22:00:00 5,6 -1,4 18 10 32 18 NW 40 0,0
13.02.2019 21:00:00 5,9 -1,5 20 11 37 20 NW 45 0,0
13.02.2019 20:00:00 5,9 -1,3 18 10 34 19 WNW 48 0,0
13.02.2019 19:00:00 6,7 -0,5 19 11 34 18 WNW 50 0,0
13.02.2019 18:00:00 6,0 0,1 15 8 36 19 WNW 50 0,0
13.02.2019 17:00:00 5,7 0,7 15 8 30 16 W 50 0,0
13.02.2019 16:00:00 6,1 1,0 18 10 30 16 W 50 0,0
13.02.2019 15:00:00 6,3 0,8 16 9 29 16 W 50 0,0
13.02.2019 14:00:00 7,4 -0,1 16 8 27 15 W 50 0,0
13.02.2019 13:00:00 7,6 -0,4 16 9 31 17 WNW 50 0,0
13.02.2019 12:00:00 6,7 0,4 13 7 34 18 NW 50 0,0
13.02.2019 11:00:00 5,6 1,0 16 8 33 18 WNW 50 0,0
13.02.2019 10:00:00 4,8 1,6 17 9 37 20 WNW 49 0,0
13.02.2019 09:00:00 4,1 2,3 19 10 33 18 WNW 50 0,0
13.02.2019 08:00:00 3,7 2,5 12 7 26 14 WNW 50 0,0
13.02.2019 07:00:00 3,7 3,3 13 7 23 13 W 35 0,0
13.02.2019 06:00:00 2,7 2,7 14 8 22 12 W 16 0,4
13.02.2019 05:00:00 1,7 1,7 11 6 29 16 W 3,4 0,0
13.02.2019 04:00:00 1,2 1,2 19 10 32 17 SW 3,2 0,0
13.02.2019 03:00:00 0,5 0,5 15 8 31 17 SW 2,6 0,0
13.02.2019 02:00:00 0,3 0,2 17 9 32 17 SW 50 0,2
13.02.2019 01:00:00 0,2 0,1 19 10 31 17 SSW 8 0,1
13.02.2019 00:00:00 -0,3 -0,4 16 9 29 16 SSW 1,7 0,6
12.02.2019 23:00:00 -0,8 -1,6 12 7 23 12 WSW 2,6 0,5
12.02.2019 22:00:00 -0,9 -6,1 9 5 16 8 WSW 50 0,0
12.02.2019 21:00:00 -2,0 -7,1 7 4 14 8 SW 50 0,0
12.02.2019 20:00:00 -1,7 -7,2 8 5 16 8 SW 50 0,0
12.02.2019 19:00:00 -1,7 -7,4 9 5 17 9 WSW 50 0,0
12.02.2019 18:00:00 -1,3 -6,8 7 4 12 6 WSW 50 0,0
12.02.2019 17:00:00 -1,5 -6,8 9 5 17 9 WSW 50 0,0
12.02.2019 16:00:00 -0,1 -6,7 11 6 26 14 WSW 50 0,0
12.02.2019 15:00:00 1,1 -7,2 16 8 29 16 WNW 48 0,0
12.02.2019 14:00:00 0,8 -7,2 19 10 32 18 WNW 50 0,0
12.02.2019 13:00:00 0,4 -6,9 21 11 36 19 WNW 50 0,0
12.02.2019 12:00:00 -0,1 -7,2 19 10 36 19 WNW 50 0,0
12.02.2019 11:00:00 -0,7 -6,9 19 10 35 19 NW 50 0,0
12.02.2019 10:00:00 -1,2 -6,7 20 11 30 16 WNW 50 0,0
12.02.2019 09:00:00 -2,0 -6,6 14 8 32 18 WNW 50 0,0
12.02.2019 08:00:00 -2,6 -6,2 16 9 26 14 WNW 50 0,0
12.02.2019 07:00:00 -2,7 -6,2 16 8 29 15 WNW 50 0,0
12.02.2019 06:00:00 -2,6 -6,1 16 9 27 15 NW 50 0,0
12.02.2019 05:00:00 -2,5 -6,0 14 8 35 19 WNW 50 0,0
12.02.2019 04:00:00 - - - - 31 17 - - -
12.02.2019 03:00:00 -2,1 -5,6 14 7 29 16 NW 50 0,0
12.02.2019 02:00:00 -2,1 -5,6 14 8 25 14 NW 50 0,0
12.02.2019 01:00:00 -1,9 -5,6 18 10 29 15 NW 50 0,0
12.02.2019 00:00:00 -1,9 -5,4 14 7 27 15 NW 50 0,0
11.02.2019 23:00:00 -1,8 -5,0 16 9 26 14 WNW 50 0,0
11.02.2019 22:00:00 -1,6 -4,8 18 10 29 15 NW 50 0,0
11.02.2019 21:00:00 -1,5 -4,5 16 9 29 16 NW 50 0,0
11.02.2019 20:00:00 -0,9 -4,3 16 9 33 18 NW 50 0,0
11.02.2019 19:00:00 -0,3 -4,0 20 11 36 19 NW 50 0,0
11.02.2019 18:00:00 0,4 -3,3 17 9 27 15 NW 50 0,0
11.02.2019 17:00:00 0,8 -3,7 18 10 32 17 NW 50 0,0
11.02.2019 16:00:00 1,3 -3,4 20 11 43 23 NNW 50 0,0
11.02.2019 15:00:00 1,4 -3,5 25 13 46 25 NNW 50 0,0
11.02.2019 14:00:00 1,5 -2,8 24 13 42 23 NNW 50 0,0
11.02.2019 13:00:00 1,7 -1,4 20 11 40 21 NNW 50 0,0

tt = Température de l'air
td = dewpoint
ff = Vitesse du vent
fx = gusts
dd = Direction du vent
vv = visibility
rr = Quantités de précipitations

stations d'obs. à proximité